Time;durP1;ratioP1;P1;durP2;ratioP2;P2;SDS_P1;SDS_P2;PMS_P1;PMS_P2;Temp;Humidity;BMP_temperature;BMP_pressure;BME280_temperature;BME280_humidity;BME280_pressure;Samples;Min_cycle;Max_cycle;Signal;HPM_P1;HPM_P2
2021/10/12 00:01:04;;;;;;;14.00;6.97;;;12.20;99.90;;;;;;6156839;23;20009;-91
2021/10/12 00:03:30;;;;;;;11.70;6.68;;;12.20;99.90;;;;;;6156675;23;20012;-93
2021/10/12 00:05:56;;;;;;;10.57;6.43;;;12.20;99.90;;;;;;6183658;23;20374;-92
2021/10/12 00:08:22;;;;;;;13.48;6.65;;;12.20;99.90;;;;;;6157127;23;20009;-91
2021/10/12 00:10:47;;;;;;;10.30;6.45;;;12.10;99.90;;;;;;6182684;23;20029;-92
2021/10/12 00:13:14;;;;;;;12.93;6.30;;;12.10;99.90;;;;;;6182767;23;20008;-91
2021/10/12 00:15:39;;;;;;;9.77;6.20;;;12.10;99.90;;;;;;6156565;23;20001;-90
2021/10/12 00:18:05;;;;;;;8.40;6.20;;;12.10;99.90;;;;;;6156626;23;20012;-92
2021/10/12 00:20:31;;;;;;;11.75;7.55;;;12.00;99.90;;;;;;6156418;23;20008;-92
2021/10/12 00:22:56;;;;;;;9.30;7.10;;;11.90;99.90;;;;;;6182919;23;20009;-92
2021/10/12 00:25:22;;;;;;;11.48;8.00;;;11.90;99.90;;;;;;6132231;23;20338;-93
2021/10/12 00:27:49;;;;;;;13.15;8.30;;;11.90;99.90;;;;;;6183113;23;20001;-94
2021/10/12 00:30:15;;;;;;;13.60;7.70;;;11.90;99.90;;;;;;6182944;23;20004;-91
2021/10/12 00:32:41;;;;;;;10.82;8.05;;;11.90;99.90;;;;;;6156439;23;20012;-91
2021/10/12 00:35:07;;;;;;;11.18;7.30;;;11.90;99.90;;;;;;6156683;23;20460;-92
2021/10/12 00:37:33;;;;;;;11.65;8.52;;;11.90;99.90;;;;;;6182737;23;20092;-91
2021/10/12 00:40:00;;;;;;;13.02;7.82;;;11.90;99.90;;;;;;6156012;23;20040;-93
2021/10/12 00:42:26;;;;;;;10.43;7.65;;;11.80;99.90;;;;;;6182561;23;20005;-92
2021/10/12 00:44:52;;;;;;;10.40;7.80;;;11.80;99.90;;;;;;6183074;23;20234;-92
2021/10/12 00:47:18;;;;;;;14.60;8.52;;;11.80;99.90;;;;;;6182614;23;20581;-91
2021/10/12 00:49:43;;;;;;;11.50;7.47;;;11.80;99.90;;;;;;6182271;23;20332;-91
2021/10/12 00:52:09;;;;;;;10.95;7.30;;;11.80;99.90;;;;;;6156227;23;20016;-91
2021/10/12 00:54:35;;;;;;;13.13;7.47;;;11.80;99.90;;;;;;6182535;23;20345;-92
2021/10/12 00:57:01;;;;;;;10.90;7.35;;;11.80;99.90;;;;;;6182682;23;20349;-93
2021/10/12 00:59:27;;;;;;;11.32;7.75;;;11.70;99.90;;;;;;6182719;23;20449;-93
2021/10/12 01:01:53;;;;;;;9.88;7.55;;;11.70;99.90;;;;;;6156473;23;20067;-92
2021/10/12 01:04:19;;;;;;;9.60;7.35;;;11.70;99.90;;;;;;6182639;23;20379;-91
2021/10/12 01:06:44;;;;;;;11.05;7.80;;;11.80;99.90;;;;;;6182748;23;20005;-91
2021/10/12 01:09:10;;;;;;;9.40;7.13;;;11.70;99.90;;;;;;6156556;23;20040;-90
2021/10/12 01:11:36;;;;;;;12.35;7.57;;;11.70;99.90;;;;;;6155720;23;20020;-92
2021/10/12 01:14:03;;;;;;;9.30;7.28;;;11.70;99.90;;;;;;6182470;23;19997;-91
2021/10/12 01:16:29;;;;;;;9.98;8.00;;;11.60;99.90;;;;;;6155940;23;20020;-91
2021/10/12 01:19:16;;;;;;;10.35;7.78;;;11.60;99.90;;;;;;6182416;23;20001;-92
2021/10/12 01:21:47;;;;;;;14.25;7.82;;;11.60;99.90;;;;;;6156464;23;20032;-91
2021/10/12 01:24:14;;;;;;;10.27;7.10;;;11.60;99.90;;;;;;6156265;23;20335;-94
2021/10/12 01:26:42;;;;;;;11.30;7.70;;;11.60;99.90;;;;;;6182651;23;20040;-91
2021/10/12 01:29:10;;;;;;;11.18;7.50;;;11.60;99.90;;;;;;6182493;23;20034;-91
2021/10/12 01:31:36;;;;;;;10.45;7.30;;;11.60;99.90;;;;;;6156327;23;20063;-91
2021/10/12 01:34:13;;;;;;;12.43;8.02;;;11.60;99.90;;;;;;6189218;23;20103;-92
2021/10/12 01:36:39;;;;;;;10.43;7.55;;;11.50;99.90;;;;;;6163845;23;20013;-92
2021/10/12 01:39:04;;;;;;;14.13;7.70;;;11.50;99.90;;;;;;6190348;23;20001;-93
2021/10/12 01:41:30;;;;;;;13.52;7.80;;;11.50;99.90;;;;;;6162926;23;20095;-92
2021/10/12 01:43:57;;;;;;;12.55;7.78;;;11.50;99.90;;;;;;6201022;23;20225;-90
2021/10/12 01:46:23;;;;;;;12.65;8.00;;;11.40;99.90;;;;;;6212558;23;20009;-91
2021/10/12 01:48:49;;;;;;;16.42;8.68;;;11.40;99.90;;;;;;6185910;23;20028;-91
2021/10/12 01:51:14;;;;;;;11.32;8.00;;;11.40;99.90;;;;;;6212378;23;20024;-91
2021/10/12 01:53:40;;;;;;;12.15;7.60;;;11.40;99.90;;;;;;6206779;23;20001;-92
2021/10/12 01:56:06;;;;;;;16.83;8.90;;;11.40;99.90;;;;;;6158408;23;20364;-91
2021/10/12 01:58:31;;;;;;;13.35;7.93;;;11.40;99.90;;;;;;6158381;23;20128;-92
2021/10/12 02:00:58;;;;;;;12.15;7.95;;;11.30;99.90;;;;;;6185780;23;20029;-91
2021/10/12 02:03:24;;;;;;;14.00;8.73;;;11.30;99.90;;;;;;6184986;23;20001;-92
2021/10/12 02:05:49;;;;;;;13.27;9.18;;;11.20;99.90;;;;;;6158630;23;20015;-91
2021/10/12 02:08:15;;;;;;;12.00;8.95;;;11.20;99.90;;;;;;6184699;23;20433;-91
2021/10/12 02:10:41;;;;;;;11.95;8.68;;;11.20;99.90;;;;;;6183743;23;20458;-92
2021/10/12 02:13:06;;;;;;;11.23;8.68;;;11.20;99.90;;;;;;6184548;23;20001;-93
2021/10/12 02:15:32;;;;;;;15.23;9.05;;;11.20;99.90;;;;;;6158011;23;20087;-92
2021/10/12 02:17:58;;;;;;;13.95;8.75;;;11.20;99.90;;;;;;6158035;23;20015;-91
2021/10/12 02:20:24;;;;;;;12.30;8.35;;;11.20;99.90;;;;;;6157722;23;20622;-92
2021/10/12 02:22:49;;;;;;;13.30;8.80;;;11.20;99.90;;;;;;6184432;23;20080;-93
2021/10/12 02:25:15;;;;;;;17.08;9.23;;;11.10;99.90;;;;;;6184253;23;20096;-94
2021/10/12 02:27:41;;;;;;;12.88;8.82;;;11.10;99.90;;;;;;6184141;23;20295;-94
2021/10/12 02:30:08;;;;;;;13.73;8.98;;;11.00;99.90;;;;;;6157652;23;20338;-91
2021/10/12 02:32:34;;;;;;;12.60;8.75;;;11.00;99.90;;;;;;6184016;23;20006;-92
2021/10/12 02:35:00;;;;;;;11.50;9.32;;;11.00;99.90;;;;;;6184486;23;20470;-91
2021/10/12 02:37:26;;;;;;;11.65;9.00;;;11.00;99.90;;;;;;6184103;23;20172;-92
2021/10/12 02:39:52;;;;;;;11.93;8.27;;;11.00;99.90;;;;;;6184617;23;20007;-91
2021/10/12 02:42:18;;;;;;;13.05;8.95;;;11.00;99.90;;;;;;6157081;23;20088;-91
2021/10/12 02:44:43;;;;;;;14.45;9.27;;;10.90;99.90;;;;;;6156947;23;20031;-91
2021/10/12 02:47:09;;;;;;;15.32;8.80;;;10.80;99.90;;;;;;6184216;23;20390;-91
2021/10/12 02:49:37;;;;;;;11.57;8.18;;;10.90;99.90;;;;;;6157024;23;20350;-93
2021/10/12 02:52:03;;;;;;;11.02;8.45;;;10.90;99.90;;;;;;6162164;23;20064;-91
2021/10/12 02:54:29;;;;;;;13.63;8.45;;;10.90;99.90;;;;;;6158356;23;20369;-91
2021/10/12 02:56:54;;;;;;;13.13;8.50;;;10.90;99.90;;;;;;6157971;23;20024;-91
2021/10/12 02:59:20;;;;;;;12.65;8.73;;;10.80;99.90;;;;;;6183990;23;20452;-91
2021/10/12 03:01:46;;;;;;;12.25;8.27;;;10.80;99.90;;;;;;6183432;23;20480;-91
2021/10/12 03:04:11;;;;;;;15.93;9.05;;;10.80;99.90;;;;;;6157460;23;20453;-93
2021/10/12 03:06:37;;;;;;;11.73;8.65;;;10.80;99.90;;;;;;6157805;23;20011;-92
2021/10/12 03:09:03;;;;;;;16.80;9.40;;;10.70;99.90;;;;;;6183674;23;20072;-91
2021/10/12 03:11:28;;;;;;;10.95;8.40;;;10.80;99.90;;;;;;6156873;23;20083;-91
2021/10/12 03:13:54;;;;;;;13.90;8.05;;;10.70;99.90;;;;;;6157404;23;20001;-91
2021/10/12 03:16:21;;;;;;;13.80;8.68;;;10.70;99.90;;;;;;6157046;23;20013;-91
2021/10/12 03:18:47;;;;;;;14.77;9.02;;;10.70;99.90;;;;;;6157176;23;20009;-92
2021/10/12 03:21:14;;;;;;;13.07;8.73;;;10.70;99.90;;;;;;6183755;23;21144;-92
2021/10/12 03:23:40;;;;;;;12.63;8.93;;;10.70;99.90;;;;;;6183459;23;20028;-91
2021/10/12 03:26:06;;;;;;;13.65;8.75;;;10.70;99.90;;;;;;6156971;23;20438;-92
2021/10/12 03:28:32;;;;;;;14.93;9.10;;;10.70;99.90;;;;;;6183594;23;20140;-91
2021/10/12 03:30:57;;;;;;;14.90;8.75;;;10.70;99.90;;;;;;6157109;23;20000;-91
2021/10/12 03:33:23;;;;;;;11.88;8.27;;;10.70;99.90;;;;;;6156775;23;20192;-91
2021/10/12 03:36:00;;;;;;;11.73;8.90;;;10.60;99.90;;;;;;6156857;23;20013;-91
2021/10/12 03:38:27;;;;;;;14.77;9.13;;;10.60;99.90;;;;;;6183105;23;20001;-90
2021/10/12 03:40:54;;;;;;;18.02;9.27;;;10.60;99.90;;;;;;6156966;23;20067;-91
2021/10/12 03:43:23;;;;;;;14.77;8.70;;;10.70;99.90;;;;;;6156233;23;20013;-92
2021/10/12 03:45:49;;;;;;;16.52;9.85;;;10.60;99.90;;;;;;6156832;23;20011;-93
2021/10/12 03:48:15;;;;;;;20.27;9.10;;;10.60;99.90;;;;;;6156168;23;20029;-91
2021/10/12 03:50:40;;;;;;;10.77;8.55;;;10.60;99.90;;;;;;6183025;23;20342;-91
2021/10/12 03:53:06;;;;;;;14.48;9.13;;;10.60;99.90;;;;;;6183280;23;20080;-91
2021/10/12 03:55:32;;;;;;;13.40;8.32;;;10.60;99.90;;;;;;6182953;23;20008;-91
2021/10/12 03:57:58;;;;;;;14.32;8.40;;;10.60;99.90;;;;;;6156782;23;20157;-91
2021/10/12 04:00:23;;;;;;;16.05;8.68;;;10.60;99.90;;;;;;6183208;23;20003;-92
2021/10/12 04:02:49;;;;;;;15.02;9.82;;;10.50;99.90;;;;;;6183682;23;20072;-92
2021/10/12 04:05:15;;;;;;;13.07;8.68;;;10.50;99.90;;;;;;6183035;23;20072;-91
2021/10/12 04:07:42;;;;;;;17.17;9.50;;;10.50;99.90;;;;;;6156894;23;20122;-91
2021/10/12 04:10:08;;;;;;;11.90;9.13;;;10.50;99.90;;;;;;6156571;23;20398;-91
2021/10/12 04:12:34;;;;;;;10.68;8.65;;;10.40;99.90;;;;;;6156033;23;20012;-91
2021/10/12 04:15:00;;;;;;;15.20;8.70;;;10.40;99.90;;;;;;6183186;23;20005;-91
2021/10/12 04:17:25;;;;;;;15.98;9.05;;;10.40;99.90;;;;;;6156190;23;20017;-91
2021/10/12 04:19:51;;;;;;;17.13;8.82;;;10.50;99.90;;;;;;6183367;23;19997;-91
2021/10/12 04:22:17;;;;;;;14.68;9.15;;;10.50;99.90;;;;;;6183186;23;20022;-91
2021/10/12 04:24:42;;;;;;;22.67;10.10;;;10.50;99.90;;;;;;6183246;23;20076;-91
2021/10/12 04:27:08;;;;;;;14.30;9.30;;;10.40;99.90;;;;;;6156271;23;20009;-91
2021/10/12 04:29:34;;;;;;;13.30;9.40;;;10.40;99.90;;;;;;6182968;23;20008;-91
2021/10/12 04:32:01;;;;;;;14.93;10.07;;;10.30;99.90;;;;;;6182863;23;20197;-90
2021/10/12 04:34:27;;;;;;;15.52;9.18;;;10.30;99.90;;;;;;6156485;23;20004;-91
2021/10/12 04:36:54;;;;;;;18.17;9.65;;;10.30;99.90;;;;;;6158067;23;20100;-93
2021/10/12 04:39:20;;;;;;;15.18;8.82;;;10.40;99.90;;;;;;6159457;23;20032;-91
2021/10/12 04:41:46;;;;;;;11.45;9.00;;;10.40;99.90;;;;;;6156231;23;20469;-91
2021/10/12 04:44:12;;;;;;;16.60;9.20;;;10.40;99.90;;;;;;6156191;23;20039;-92
2021/10/12 04:46:39;;;;;;;16.10;9.23;;;10.40;99.90;;;;;;6182864;23;20009;-90
2021/10/12 04:49:05;;;;;;;15.15;8.88;;;10.40;99.90;;;;;;6159441;23;20032;-90
2021/10/12 04:51:31;;;;;;;16.17;9.25;;;10.30;99.90;;;;;;6187952;23;19997;-91
2021/10/12 04:53:57;;;;;;;15.77;8.90;;;10.40;99.90;;;;;;6186360;23;20061;-91
2021/10/12 04:56:24;;;;;;;15.93;10.20;;;10.40;99.90;;;;;;6161878;23;20017;-91
2021/10/12 04:58:49;;;;;;;14.60;8.20;;;10.40;99.90;;;;;;6164673;23;20001;-90
2021/10/12 05:01:15;;;;;;;15.15;8.43;;;10.40;99.90;;;;;;6190680;23;20005;-91
2021/10/12 05:03:41;;;;;;;15.45;8.68;;;10.40;99.90;;;;;;6183045;23;20001;-90
2021/10/12 05:06:06;;;;;;;16.13;8.88;;;10.30;99.90;;;;;;6157743;23;20001;-90
2021/10/12 05:08:32;;;;;;;14.88;8.48;;;10.30;99.90;;;;;;6184473;23;20052;-89
2021/10/12 05:10:58;;;;;;;16.00;8.15;;;10.30;99.90;;;;;;6186455;23;20092;-89
2021/10/12 05:13:24;;;;;;;13.70;8.90;;;10.30;99.90;;;;;;6186300;23;20027;-90
2021/10/12 05:15:50;;;;;;;16.10;9.10;;;10.30;99.90;;;;;;6185243;23;19997;-89
2021/10/12 05:18:25;;;;;;;16.30;9.25;;;10.20;99.90;;;;;;6184311;23;20005;-90
2021/10/12 05:20:50;;;;;;;16.08;9.70;;;10.30;99.90;;;;;;6158266;23;20047;-91
2021/10/12 05:23:16;;;;;;;25.67;8.82;;;10.20;99.90;;;;;;6185467;23;20005;-90
2021/10/12 05:25:46;;;;;;;19.02;9.68;;;10.20;99.90;;;;;;6185468;23;20161;-90
2021/10/12 05:28:12;;;;;;;15.73;9.55;;;10.20;99.90;;;;;;6184576;23;20094;-90
2021/10/12 05:30:39;;;;;;;18.02;8.82;;;10.10;99.90;;;;;;6184481;23;20323;-90
2021/10/12 05:33:13;;;;;;;16.00;8.63;;;10.10;99.90;;;;;;6158142;23;20108;-90
2021/10/12 05:35:39;;;;;;;19.90;9.25;;;10.10;99.90;;;;;;6184474;23;19997;-90
2021/10/12 05:38:04;;;;;;;17.30;8.95;;;10.10;99.90;;;;;;6184312;23;20007;-90
2021/10/12 05:40:31;;;;;;;14.77;8.90;;;10.00;99.90;;;;;;6158108;23;20044;-90
2021/10/12 05:42:56;;;;;;;19.63;9.00;;;10.00;99.90;;;;;;6157290;23;20004;-90
2021/10/12 05:45:22;;;;;;;19.13;9.05;;;10.00;99.90;;;;;;6158316;23;20016;-90
2021/10/12 05:47:48;;;;;;;14.00;8.95;;;10.00;99.90;;;;;;6157575;23;20035;-90
2021/10/12 05:50:14;;;;;;;14.40;8.15;;;10.00;99.90;;;;;;6183886;23;20005;-92
2021/10/12 05:52:42;;;;;;;19.55;10.40;;;10.00;99.90;;;;;;6157832;23;20067;-90
2021/10/12 05:55:20;;;;;;;17.38;9.02;;;10.00;99.90;;;;;;6157706;23;20001;-90
2021/10/12 06:00:30;;;;;;;18.52;9.95;;;9.90;99.90;;;;;;6184723;23;20493;-90
2021/10/12 06:02:57;;;;;;;16.50;8.90;;;10.00;99.90;;;;;;6184004;23;20009;-90
2021/10/12 06:05:22;;;;;;;21.63;9.88;;;9.90;99.90;;;;;;6184415;23;20001;-93
2021/10/12 06:07:48;;;;;;;22.95;9.60;;;10.00;99.90;;;;;;6184234;23;20459;-90
2021/10/12 06:10:13;;;;;;;15.07;8.73;;;9.90;99.90;;;;;;6184066;23;20055;-90
2021/10/12 06:12:39;;;;;;;17.17;8.18;;;9.90;99.90;;;;;;6157667;23;20009;-91
2021/10/12 06:15:05;;;;;;;17.08;9.20;;;10.00;99.90;;;;;;6184470;23;20134;-90
2021/10/12 06:17:31;;;;;;;18.73;8.48;;;9.90;99.90;;;;;;6157707;23;20092;-90
2021/10/12 06:19:57;;;;;;;16.33;8.68;;;9.90;99.90;;;;;;6157086;23;20391;-91
2021/10/12 06:22:22;;;;;;;15.30;8.95;;;9.90;99.90;;;;;;6184233;23;20012;-90
2021/10/12 06:24:48;;;;;;;15.02;8.27;;;9.90;99.90;;;;;;6157570;23;20366;-90
2021/10/12 06:27:14;;;;;;;15.93;8.75;;;9.90;99.90;;;;;;6157267;23;20047;-90
2021/10/12 06:29:40;;;;;;;16.30;8.98;;;9.90;99.90;;;;;;6184023;23;20005;-90
2021/10/12 06:32:05;;;;;;;14.80;8.90;;;9.80;99.90;;;;;;6184148;23;20342;-91
2021/10/12 06:34:31;;;;;;;21.55;9.57;;;9.80;99.90;;;;;;6184608;23;20039;-94
2021/10/12 06:36:57;;;;;;;16.73;8.60;;;9.80;99.90;;;;;;6157550;23;20545;-90
2021/10/12 06:39:22;;;;;;;16.50;8.55;;;9.80;99.90;;;;;;6157777;23;20005;-91
2021/10/12 06:41:50;;;;;;;21.52;8.82;;;9.80;99.90;;;;;;6157322;23;20009;-90
2021/10/12 06:44:15;;;;;;;21.60;8.60;;;9.80;99.90;;;;;;6157013;23;20012;-90
2021/10/12 06:46:41;;;;;;;17.35;8.98;;;9.80;99.90;;;;;;6183832;23;20001;-91
2021/10/12 06:49:07;;;;;;;18.55;8.40;;;9.80;99.90;;;;;;6157114;23;20021;-90
2021/10/12 06:51:32;;;;;;;15.32;8.05;;;9.70;99.90;;;;;;6157428;23;20001;-90
2021/10/12 06:53:58;;;;;;;19.45;9.02;;;9.80;99.90;;;;;;6183699;23;20024;-91
2021/10/12 06:56:24;;;;;;;19.48;7.95;;;9.90;99.90;;;;;;6183826;23;20001;-90
2021/10/12 06:58:50;;;;;;;16.48;8.10;;;10.00;99.90;;;;;;6183864;23;20493;-90
2021/10/12 07:01:16;;;;;;;15.55;7.70;;;10.10;99.90;;;;;;6183082;23;20029;-90
2021/10/12 07:03:41;;;;;;;16.83;8.20;;;10.10;99.90;;;;;;6184436;23;20414;-90
2021/10/12 07:06:07;;;;;;;18.67;9.02;;;10.10;99.90;;;;;;6183547;23;20032;-91
2021/10/12 07:08:33;;;;;;;25.83;9.43;;;10.10;99.90;;;;;;6183477;23;20001;-91
2021/10/12 07:10:58;;;;;;;19.00;7.75;;;10.10;99.90;;;;;;6183966;23;20431;-90
2021/10/12 07:13:28;;;;;;;21.75;8.18;;;10.20;99.90;;;;;;6184211;23;20001;-91
2021/10/12 07:15:58;;;;;;;16.85;8.15;;;10.20;99.90;;;;;;6184951;23;20012;-90
2021/10/12 07:18:24;;;;;;;18.98;8.20;;;10.30;99.90;;;;;;6183681;23;20009;-91
2021/10/12 07:20:51;;;;;;;16.73;7.72;;;10.40;99.90;;;;;;6183629;23;20028;-91
2021/10/12 07:23:17;;;;;;;15.30;6.80;;;10.40;99.90;;;;;;6183427;23;20012;-91
2021/10/12 07:25:50;;;;;;;15.18;7.90;;;10.50;99.90;;;;;;6157498;23;20005;-92
2021/10/12 07:28:17;;;;;;;19.80;8.50;;;10.60;99.90;;;;;;6183647;23;20328;-90
2021/10/12 07:30:43;;;;;;;17.88;8.15;;;10.60;99.90;;;;;;6162854;23;20033;-94
2021/10/12 07:33:09;;;;;;;17.98;8.40;;;10.70;99.90;;;;;;6186642;23;20120;-90
2021/10/12 07:35:34;;;;;;;15.48;8.45;;;10.70;99.90;;;;;;6160941;23;20008;-90
2021/10/12 07:38:01;;;;;;;17.20;7.47;;;10.70;99.90;;;;;;6158934;23;20017;-90
2021/10/12 07:40:27;;;;;;;21.58;8.30;;;10.80;99.90;;;;;;6158950;23;20339;-91
2021/10/12 07:42:53;;;;;;;12.63;7.57;;;10.90;99.90;;;;;;6185526;23;20001;-88
2021/10/12 07:45:20;;;;;;;16.05;7.75;;;11.00;99.90;;;;;;6184606;23;20001;-91
2021/10/12 07:47:46;;;;;;;18.05;7.90;;;11.00;99.90;;;;;;6156415;23;20342;-90
2021/10/12 07:50:12;;;;;;;15.05;7.38;;;11.10;99.90;;;;;;6156695;23;20040;-91
2021/10/12 07:52:37;;;;;;;13.90;8.55;;;10.90;99.90;;;;;;6182941;23;20048;-94
2021/10/12 07:57:33;;;;;;;23.40;7.65;;;10.80;99.90;;;;;;6183334;23;20346;-91
2021/10/12 07:59:59;;;;;;;21.15;8.93;;;10.90;99.90;;;;;;6183202;23;19997;-91
2021/10/12 08:02:25;;;;;;;15.65;7.53;;;11.10;99.90;;;;;;6183063;23;20001;-90
2021/10/12 08:04:50;;;;;;;15.25;7.78;;;11.10;99.90;;;;;;6156829;23;20072;-91
2021/10/12 08:07:16;;;;;;;13.23;7.43;;;11.20;99.90;;;;;;6182955;23;20005;-92
2021/10/12 08:09:42;;;;;;;18.63;8.25;;;11.40;99.90;;;;;;6156050;23;20005;-91
2021/10/12 08:12:08;;;;;;;14.90;7.57;;;11.50;99.90;;;;;;6156426;23;20013;-90
2021/10/12 08:14:41;;;;;;;19.30;7.97;;;11.70;99.90;;;;;;6156436;23;20398;-92
2021/10/12 08:17:06;;;;;;;14.15;7.95;;;11.80;99.90;;;;;;6182702;23;20473;-91
2021/10/12 08:19:32;;;;;;;16.13;7.55;;;11.70;99.90;;;;;;6183152;23;19997;-92
2021/10/12 08:21:58;;;;;;;15.30;7.57;;;11.70;99.90;;;;;;6183000;23;20027;-91
2021/10/12 08:24:24;;;;;;;17.75;7.82;;;11.80;99.90;;;;;;6183056;23;20449;-91
2021/10/12 08:26:50;;;;;;;12.85;7.25;;;11.90;99.90;;;;;;6182566;23;20096;-91
2021/10/12 08:29:16;;;;;;;11.75;7.68;;;12.00;99.90;;;;;;6182941;23;20001;-91
2021/10/12 08:31:42;;;;;;;12.65;7.15;;;12.10;99.90;;;;;;6182824;23;20008;-91
2021/10/12 08:34:08;;;;;;;15.90;7.57;;;12.20;99.90;;;;;;6156377;23;20001;-91
2021/10/12 08:36:33;;;;;;;19.52;8.77;;;12.30;99.90;;;;;;6156855;23;20017;-91
2021/10/12 08:38:59;;;;;;;16.48;7.68;;;12.30;99.90;;;;;;6156444;23;20366;-91
2021/10/12 08:41:31;;;;;;;15.65;7.75;;;12.40;99.90;;;;;;6182518;23;20005;-90
2021/10/12 08:43:58;;;;;;;17.33;8.23;;;12.40;99.90;;;;;;6156109;23;20005;-91
2021/10/12 08:46:26;;;;;;;16.55;8.00;;;12.30;99.90;;;;;;6182318;23;19997;-90
2021/10/12 08:48:59;;;;;;;16.88;8.02;;;12.40;99.90;;;;;;6180812;23;20020;-91
2021/10/12 08:51:26;;;;;;;15.57;7.90;;;12.60;99.90;;;;;;6183179;23;20088;-90
2021/10/12 08:53:53;;;;;;;15.63;8.45;;;12.70;99.90;;;;;;6182506;23;20032;-93
2021/10/12 08:56:19;;;;;;;16.42;7.72;;;12.80;99.90;;;;;;6181903;23;20016;-91
2021/10/12 08:58:45;;;;;;;14.52;7.53;;;12.80;99.90;;;;;;6182489;23;20001;-89
2021/10/12 09:01:17;;;;;;;16.42;7.75;;;12.90;99.90;;;;;;6156455;23;20034;-90
2021/10/12 09:06:26;;;;;;;12.15;7.05;;;13.30;99.90;;;;;;6182352;23;20324;-92
2021/10/12 09:08:57;;;;;;;15.88;7.85;;;13.40;99.90;;;;;;6182293;23;20001;-91
2021/10/12 09:11:26;;;;;;;13.77;7.38;;;13.40;99.90;;;;;;6182156;23;20001;-92
2021/10/12 09:13:58;;;;;;;18.15;7.20;;;13.40;99.90;;;;;;6182517;23;20087;-93
2021/10/12 09:16:32;;;;;;;16.02;6.78;;;13.40;99.90;;;;;;6182174;23;20343;-90
2021/10/12 09:18:59;;;;;;;13.93;7.00;;;13.60;99.90;;;;;;6156281;23;20001;-91
2021/10/12 09:21:28;;;;;;;21.50;7.10;;;13.70;99.90;;;;;;6182243;23;20005;-91
2021/10/12 09:24:09;;;;;;;18.30;8.05;;;13.60;99.90;;;;;;6155852;23;20005;-91
2021/10/12 09:26:43;;;;;;;16.00;6.38;;;13.70;99.90;;;;;;6155583;23;20051;-91
2021/10/12 09:29:24;;;;;;;15.82;8.48;;;13.80;99.90;;;;;;6183244;23;20075;-90
2021/10/12 09:31:50;;;;;;;14.38;6.90;;;13.90;99.90;;;;;;6156233;23;20032;-90
2021/10/12 09:34:18;;;;;;;12.10;6.80;;;14.00;99.90;;;;;;6182437;23;20430;-90
2021/10/12 09:36:49;;;;;;;12.60;6.75;;;14.00;99.90;;;;;;6182184;23;20013;-90
2021/10/12 09:39:29;;;;;;;13.48;6.68;;;14.10;99.90;;;;;;6155963;23;20354;-89
2021/10/12 09:42:01;;;;;;;13.55;6.43;;;14.20;99.90;;;;;;6155469;23;20035;-89
2021/10/12 09:44:28;;;;;;;17.63;6.70;;;14.40;99.90;;;;;;6182373;23;20004;-89
2021/10/12 09:47:07;;;;;;;14.60;6.93;;;14.40;99.90;;;;;;6157897;23;20029;-88
2021/10/12 09:49:33;;;;;;;15.82;6.45;;;14.50;99.90;;;;;;6160965;23;20017;-89
2021/10/12 09:52:06;;;;;;;14.27;7.07;;;14.60;99.90;;;;;;6162731;23;20039;-89
2021/10/12 09:54:49;;;;;;;19.60;6.60;;;14.60;99.90;;;;;;6189755;23;20051;-89
2021/10/12 09:57:19;;;;;;;17.38;7.28;;;14.70;99.90;;;;;;6195343;23;20065;-89
2021/10/12 09:59:46;;;;;;;14.98;7.18;;;14.80;99.90;;;;;;6212280;23;20001;-89
2021/10/12 10:02:23;;;;;;;16.77;6.72;;;14.90;99.90;;;;;;6185861;23;20005;-89
2021/10/12 10:04:51;;;;;;;15.88;6.00;;;15.00;99.90;;;;;;6211888;23;20084;-90
2021/10/12 10:07:25;;;;;;;13.50;6.30;;;15.00;99.90;;;;;;6184961;23;20009;-92
2021/10/12 10:09:55;;;;;;;14.37;6.23;;;15.10;99.90;;;;;;6158304;23;20152;-89
2021/10/12 10:12:22;;;;;;;15.85;7.28;;;15.10;99.90;;;;;;6184112;23;20011;-89
2021/10/12 10:14:47;;;;;;;17.88;7.05;;;15.20;99.90;;;;;;6157565;23;20465;-86
2021/10/12 10:17:14;;;;;;;11.75;6.60;;;15.20;99.90;;;;;;6184109;23;20021;-85
2021/10/12 10:19:43;;;;;;;13.00;5.50;;;15.40;99.90;;;;;;6182958;23;20001;-85
2021/10/12 10:22:09;;;;;;;14.68;5.85;;;15.50;99.90;;;;;;6183728;23;20192;-85
2021/10/12 10:24:41;;;;;;;16.23;6.03;;;15.60;99.90;;;;;;6184009;23;19997;-85
2021/10/12 10:27:27;;;;;;;19.17;6.70;;;15.60;99.90;;;;;;6183404;23;20081;-85
2021/10/12 10:30:26;;;;;;;13.60;5.90;;;15.60;99.90;;;;;;6183766;23;20004;-85
2021/10/12 10:32:57;;;;;;;16.83;6.60;;;15.70;99.90;;;;;;6183711;23;20430;-85
2021/10/12 10:35:44;;;;;;;12.35;6.50;;;15.60;99.90;;;;;;6184606;23;20060;-86
2021/10/12 10:38:33;;;;;;;12.45;6.00;;;15.60;99.90;;;;;;6158075;23;20436;-85
2021/10/12 10:41:05;;;;;;;13.13;5.70;;;15.70;99.90;;;;;;6183422;23;20382;-85
2021/10/12 10:43:49;;;;;;;12.98;5.90;;;15.90;99.90;;;;;;6183652;23;20068;-85
2021/10/12 10:46:30;;;;;;;14.35;5.45;;;15.90;99.90;;;;;;6157078;23;20331;-85
2021/10/12 10:49:04;;;;;;;13.82;5.43;;;15.80;99.90;;;;;;6186478;23;20008;-85
2021/10/12 10:51:44;;;;;;;;;;;16.00;99.90;;;;;;6188682;23;20005;-85
2021/10/12 10:54:36;;;;;;;12.68;4.28;;;16.10;99.90;;;;;;6164659;23;20295;-85
2021/10/12 10:57:22;;;;;;;14.95;4.95;;;16.20;99.90;;;;;;6187580;23;20067;-85
2021/10/12 11:00:08;;;;;;;14.73;4.80;;;16.30;99.90;;;;;;6185581;23;20036;-85
2021/10/12 11:02:33;;;;;;;11.68;3.92;;;16.30;99.90;;;;;;6160110;23;20233;-85
2021/10/12 11:05:00;;;;;;;12.75;4.50;;;16.40;99.90;;;;;;6186559;23;20012;-85
2021/10/12 11:07:27;;;;;;;10.20;4.07;;;16.50;99.90;;;;;;6183405;23;20333;-85
2021/10/12 11:09:53;;;;;;;11.95;3.88;;;16.50;99.90;;;;;;6157208;23;20394;-86
2021/10/12 11:12:22;;;;;;;9.55;3.40;;;16.50;99.90;;;;;;6183099;23;20028;-86
2021/10/12 11:14:49;;;;;;;10.75;4.10;;;16.40;99.90;;;;;;6183229;23;20068;-85
2021/10/12 11:17:15;;;;;;;14.10;4.65;;;16.50;99.90;;;;;;6183090;23;20426;-85
2021/10/12 11:20:07;;;;;;;15.90;4.35;;;16.60;99.90;;;;;;6183275;23;20004;-86
2021/10/12 11:22:40;;;;;;;11.27;3.60;;;16.80;99.90;;;;;;6183147;23;20392;-86
2021/10/12 11:25:06;;;;;;;8.88;4.03;;;16.90;99.90;;;;;;6157096;23;20028;-85
2021/10/12 11:27:41;;;;;;;13.35;4.03;;;16.90;99.90;;;;;;6183141;23;20005;-86
2021/10/12 11:30:12;;;;;;;15.73;4.13;;;17.00;99.90;;;;;;6183079;23;20442;-85
2021/10/12 11:32:38;;;;;;;16.08;3.67;;;17.10;99.90;;;;;;6183019;23;20005;-86
2021/10/12 11:35:06;;;;;;;10.30;4.05;;;17.10;99.90;;;;;;6183226;23;20005;-85
2021/10/12 11:37:31;;;;;;;11.50;4.18;;;17.30;99.90;;;;;;6183138;23;20013;-85
2021/10/12 11:40:16;;;;;;;11.93;4.07;;;17.30;99.90;;;;;;6183366;23;20075;-85
2021/10/12 11:42:45;;;;;;;12.75;3.97;;;17.40;99.90;;;;;;6183248;23;20001;-85
2021/10/12 11:45:11;;;;;;;12.60;4.38;;;17.50;99.90;;;;;;6156796;23;20009;-85
2021/10/12 11:47:38;;;;;;;12.68;4.10;;;17.40;99.90;;;;;;6183146;23;20005;-85
2021/10/12 11:50:11;;;;;;;9.15;3.42;;;17.30;99.90;;;;;;6182986;23;20016;-85
2021/10/12 11:52:37;;;;;;;8.25;3.42;;;17.40;99.90;;;;;;6182825;23;20095;-85
2021/10/12 11:55:07;;;;;;;7.80;3.25;;;17.40;99.90;;;;;;6182895;23;19997;-85
2021/10/12 11:57:33;;;;;;;12.25;3.22;;;17.40;99.90;;;;;;6182554;23;20438;-86
2021/10/12 11:59:59;;;;;;;6.53;2.72;;;17.60;99.90;;;;;;6182979;23;20005;-85
2021/10/12 12:02:28;;;;;;;11.52;3.47;;;17.60;99.90;;;;;;6182826;23;20033;-85
2021/10/12 12:05:01;;;;;;;10.73;3.60;;;17.70;99.90;;;;;;6182557;23;20024;-86
2021/10/12 12:07:33;;;;;;;12.48;2.97;;;17.90;99.90;;;;;;6182798;23;20055;-85
2021/10/12 12:09:59;;;;;;;7.75;2.72;;;17.80;99.90;;;;;;6182456;23;20004;-85
2021/10/12 12:12:25;;;;;;;8.55;3.10;;;17.80;99.90;;;;;;6183143;23;20009;-86
2021/10/12 12:14:52;;;;;;;8.23;3.00;;;17.80;99.90;;;;;;6183007;23;20009;-86
2021/10/12 12:17:22;;;;;;;12.27;2.60;;;17.80;99.90;;;;;;6183135;23;20040;-85
2021/10/12 12:19:48;;;;;;;10.23;2.80;;;17.80;99.90;;;;;;6182922;23;20476;-85
2021/10/12 12:22:22;;;;;;;7.68;2.10;;;18.00;99.90;;;;;;6182798;23;20000;-85
2021/10/12 12:25:14;;;;;;;11.20;2.85;;;18.30;99.90;;;;;;6182529;23;20066;-85
2021/10/12 12:27:57;;;;;;;9.68;2.42;;;18.40;99.90;;;;;;6182862;23;20027;-85
2021/10/12 12:30:35;;;;;;;9.80;2.28;;;18.40;99.90;;;;;;6183071;23;20011;-84
2021/10/12 12:33:01;;;;;;;6.47;2.10;;;18.30;99.90;;;;;;6182878;23;20450;-85
2021/10/12 12:35:27;;;;;;;4.97;1.70;;;18.30;99.90;;;;;;6182852;23;20001;-85
2021/10/12 12:38:01;;;;;;;7.82;2.00;;;18.40;99.90;;;;;;6182771;23;20040;-85
2021/10/12 12:40:33;;;;;;;6.32;1.92;;;18.40;99.90;;;;;;6182293;23;20008;-85
2021/10/12 12:43:16;;;;;;;4.78;1.70;;;18.40;99.90;;;;;;6181998;23;20005;-85
2021/10/12 12:45:42;;;;;;;8.48;1.92;;;18.40;99.90;;;;;;6182091;23;20283;-85
2021/10/12 12:48:07;;;;;;;5.57;1.80;;;18.50;99.90;;;;;;6181631;23;20241;-84
2021/10/12 12:50:38;;;;;;;8.73;2.03;;;18.70;99.90;;;;;;6182128;23;20005;-85